Time;durP1;ratioP1;P1;durP2;ratioP2;P2;SDS_P1;SDS_P2;PMS_P1;PMS_P2;Temp;Humidity;BMP_temperature;BMP_pressure;BME280_temperature;BME280_humidity;BME280_pressure;Samples;Min_cycle;Max_cycle;Signal;HPM_P1;HPM_P2
2022/12/02 00:01:53;;;;;;;;;3.00;3.00;;;;;20.02;58.88;102186.55;105659;1279;19182;-64
2022/12/02 00:04:21;;;;;;;;;4.00;4.00;;;;;20.00;58.96;102178.00;105650;1296;19626;-62
2022/12/02 00:06:48;;;;;;;;;5.00;4.00;;;;;20.00;58.94;102180.30;105679;1280;21814;-62
2022/12/02 00:09:16;;;;;;;;;4.00;4.00;;;;;20.01;58.99;102180.79;105661;1295;19203;-63
2022/12/02 00:11:43;;;;;;;;;4.00;4.00;;;;;20.00;58.86;102173.42;105699;1297;19255;-62
2022/12/02 00:14:11;;;;;;;;;3.00;2.00;;;;;20.00;58.82;102173.11;105633;1293;20310;-63
2022/12/02 00:16:38;;;;;;;;;2.00;2.00;;;;;20.01;58.86;102177.01;105576;1297;162840;-63
2022/12/02 00:19:06;;;;;;;;;;;;;;;20.01;58.72;102175.73;105648;1297;20827;-62
2022/12/02 00:21:33;;;;;;;;;2.00;2.00;;;;;20.01;58.83;102175.75;105655;1272;20184;-62
2022/12/02 00:24:01;;;;;;;;;3.00;3.00;;;;;20.00;58.84;102173.96;105670;1294;24920;-62
2022/12/02 00:26:28;;;;;;;;;2.00;2.00;;;;;20.00;58.75;102172.88;105650;1297;21045;-62
2022/12/02 00:28:56;;;;;;;;;4.00;4.00;;;;;19.99;58.88;102172.11;105652;1296;20132;-62
2022/12/02 00:31:23;;;;;;;;;4.00;2.00;;;;;19.98;58.87;102166.71;105646;1288;19610;-62
2022/12/02 00:33:50;;;;;;;;;3.00;2.00;;;;;19.99;58.80;102169.02;105668;1297;19574;-61
2022/12/02 00:36:18;;;;;;;;;2.00;2.00;;;;;19.99;58.72;102175.17;105658;1288;21595;-61
2022/12/02 00:38:45;;;;;;;;;4.00;4.00;;;;;19.99;58.59;102175.52;105708;1278;22351;-62
2022/12/02 00:41:13;;;;;;;;;4.00;4.00;;;;;19.99;58.85;102173.02;105641;1297;19543;-62
2022/12/02 00:46:34;;;;;;;;;2.00;2.00;;;;;19.99;58.63;102170.08;105664;1279;19933;-57
2022/12/02 00:49:02;;;;;;;;;4.00;4.00;;;;;19.98;58.79;102172.36;105670;1272;19469;-61
2022/12/02 00:51:29;;;;;;;;;2.00;2.00;;;;;19.99;58.72;102174.13;105629;1279;21450;-61
2022/12/02 00:53:57;;;;;;;;;4.00;4.00;;;;;19.99;58.45;102178.44;105640;1291;19194;-61
2022/12/02 00:56:24;;;;;;;;;;;;;;;19.98;58.58;102175.41;105643;1295;19448;-61
2022/12/02 00:58:51;;;;;;;;;4.00;4.00;;;;;19.98;58.60;102173.98;105644;1274;20112;-61
2022/12/02 01:01:19;;;;;;;;;4.00;4.00;;;;;19.99;58.54;102176.80;105639;1291;19537;-62
2022/12/02 01:03:47;;;;;;;;;2.00;2.00;;;;;19.97;58.73;102175.50;105613;1282;24989;-63
2022/12/02 01:06:14;;;;;;;;;2.00;2.00;;;;;19.98;58.46;102173.08;105598;1297;20091;-63
2022/12/02 01:08:42;;;;;;;;;4.50;4.50;;;;;19.97;58.67;102176.04;105669;1289;19867;-63
2022/12/02 01:11:09;;;;;;;;;2.00;2.00;;;;;19.98;58.48;102172.71;105660;1272;23518;-62
2022/12/02 01:13:37;;;;;;;;;;;;;;;19.97;58.73;102174.75;105629;1297;20086;-62
2022/12/02 01:16:04;;;;;;;;;2.00;2.00;;;;;19.97;58.56;102168.82;105656;1289;19702;-62
2022/12/02 01:18:31;;;;;;;;;2.00;2.00;;;;;19.97;58.45;102168.96;105669;1288;20617;-61
2022/12/02 01:20:59;;;;;;;;;2.00;2.00;;;;;19.97;58.60;102163.72;105675;1279;21423;-62
2022/12/02 01:23:26;;;;;;;;;4.00;2.00;;;;;19.97;58.67;102166.65;105649;1297;19221;-62
2022/12/02 01:25:54;;;;;;;;;4.00;4.00;;;;;19.96;58.43;102165.06;105678;1279;21556;-64
2022/12/02 01:28:21;;;;;;;;;2.00;2.00;;;;;19.97;58.42;102163.02;105623;1276;21736;-61
2022/12/02 01:30:49;;;;;;;;;2.00;2.00;;;;;19.96;58.24;102162.52;105637;1291;19159;-62
2022/12/02 01:33:16;;;;;;;;;4.00;4.00;;;;;19.97;58.50;102162.11;105653;1279;21017;-61
2022/12/02 01:35:43;;;;;;;;;4.00;2.00;;;;;19.97;58.30;102160.69;105690;1297;20291;-57
2022/12/02 01:38:11;;;;;;;;;3.00;3.00;;;;;19.95;58.64;102158.13;105640;1280;22615;-61
2022/12/02 01:40:38;;;;;;;;;4.00;4.00;;;;;19.95;58.42;102152.28;105673;1289;19265;-62
2022/12/02 01:43:06;;;;;;;;;2.00;2.00;;;;;19.96;58.40;102156.41;105659;1279;21763;-62
2022/12/02 01:45:33;;;;;;;;;5.00;4.00;;;;;19.95;58.30;102156.81;105595;1291;19687;-63
2022/12/02 01:48:01;;;;;;;;;2.00;2.00;;;;;19.94;58.27;102157.10;105671;1297;19168;-63
2022/12/02 01:50:28;;;;;;;;;2.00;2.00;;;;;19.94;58.28;102159.10;105667;1281;20392;-62
2022/12/02 01:52:55;;;;;;;;;2.00;2.00;;;;;19.95;58.09;102160.45;105595;1297;19563;-62
2022/12/02 01:55:23;;;;;;;;;1.00;1.00;;;;;19.94;58.10;102160.02;105656;1279;22168;-62
2022/12/02 01:57:50;;;;;;;;;2.00;2.00;;;;;19.93;58.20;102158.45;105664;1281;20118;-62
2022/12/02 02:00:18;;;;;;;;;4.00;2.00;;;;;19.94;58.30;102156.61;105657;1288;19314;-62
2022/12/02 02:02:46;;;;;;;;;5.00;4.00;;;;;19.94;58.16;102160.54;105705;1272;23421;-61
2022/12/02 02:05:13;;;;;;;;;2.00;2.00;;;;;19.94;58.17;102158.25;105659;1291;21704;-62
2022/12/02 02:07:40;;;;;;;;;2.00;2.00;;;;;19.94;58.27;102155.52;105616;1289;21025;-62
2022/12/02 02:10:08;;;;;;;;;2.00;2.00;;;;;19.94;58.16;102153.89;105639;1287;19322;-60
2022/12/02 02:12:35;;;;;;;;;2.00;2.00;;;;;19.93;58.19;102153.21;105651;1279;20392;-60
2022/12/02 02:15:03;;;;;;;;;2.00;2.00;;;;;19.93;58.17;102156.64;105652;1288;23432;-62
2022/12/02 02:17:30;;;;;;;;;4.00;4.00;;;;;19.93;58.10;102153.05;105658;1295;19374;-61
2022/12/02 02:19:58;;;;;;;;;2.00;2.00;;;;;19.93;58.21;102153.04;105642;1271;20398;-60
2022/12/02 02:22:25;;;;;;;;;3.00;3.00;;;;;19.93;57.95;102153.60;105645;1296;23190;-60
2022/12/02 02:24:52;;;;;;;;;2.00;2.00;;;;;19.93;58.03;102156.66;105649;1280;19310;-61
2022/12/02 02:27:20;;;;;;;;;2.00;2.00;;;;;19.93;58.14;102157.36;105631;1274;20071;-63
2022/12/02 02:29:47;;;;;;;;;3.00;2.00;;;;;19.92;58.08;102153.12;105689;1288;24494;-61
2022/12/02 02:32:15;;;;;;;;;4.00;4.00;;;;;19.92;58.02;102149.48;105641;1289;21094;-62
2022/12/02 02:34:42;;;;;;;;;2.00;2.00;;;;;19.93;57.78;102150.89;105637;1296;19972;-62
2022/12/02 02:37:10;;;;;;;;;2.00;2.00;;;;;19.92;58.05;102149.84;105644;1288;19588;-61
2022/12/02 02:39:37;;;;;;;;;5.00;4.00;;;;;19.93;57.90;102148.73;105578;1272;19428;-63
2022/12/02 02:42:05;;;;;;;;;2.00;2.00;;;;;19.93;57.74;102145.78;105671;1281;21971;-63
2022/12/02 02:44:32;;;;;;;;;1.00;1.00;;;;;19.93;57.89;102147.63;105705;1297;20539;-63
2022/12/02 02:46:59;;;;;;;;;2.00;2.00;;;;;19.91;57.88;102147.54;105650;1295;19214;-59
2022/12/02 02:49:27;;;;;;;;;2.00;2.00;;;;;19.91;57.74;102145.43;105613;1279;23039;-63
2022/12/02 02:51:54;;;;;;;;;3.00;2.00;;;;;19.92;57.86;102151.70;105630;1288;20011;-62
2022/12/02 02:54:22;;;;;;;;;2.00;2.00;;;;;19.92;57.80;102150.76;105606;1288;19264;-63
2022/12/02 02:56:49;;;;;;;;;2.00;2.00;;;;;19.91;57.83;102144.36;105674;1274;23654;-63
2022/12/02 02:59:17;;;;;;;;;2.00;2.00;;;;;19.92;57.64;102148.04;105648;1295;22629;-62
2022/12/02 03:01:44;;;;;;;;;2.00;2.00;;;;;19.92;57.78;102143.14;105644;1291;20650;-63
2022/12/02 03:04:12;;;;;;;;;4.00;2.00;;;;;19.92;57.89;102140.46;105605;1271;23763;-63
2022/12/02 03:06:39;;;;;;;;;2.00;2.00;;;;;19.92;57.86;102142.25;105668;1294;19193;-64
2022/12/02 03:09:06;;;;;;;;;2.00;2.00;;;;;19.91;57.81;102141.98;105662;1297;23501;-65
2022/12/02 03:11:34;;;;;;;;;2.00;2.00;;;;;19.91;57.64;102140.49;105662;1294;21653;-61
2022/12/02 03:14:01;;;;;;;;;4.00;4.00;;;;;19.91;57.78;102140.55;105641;1288;23747;-62
2022/12/02 03:16:29;;;;;;;;;2.00;2.00;;;;;19.91;57.71;102141.06;105622;1279;20846;-62
2022/12/02 03:18:56;;;;;;;;;2.00;2.00;;;;;19.91;57.59;102138.17;105640;1274;22774;-63
2022/12/02 03:21:24;;;;;;;;;2.00;2.00;;;;;19.91;57.68;102145.56;105637;1280;19191;-63
2022/12/02 03:23:52;;;;;;;;;2.00;2.00;;;;;19.90;57.62;102145.27;105665;1294;19651;-62
2022/12/02 03:26:19;;;;;;;;;4.00;2.00;;;;;19.90;57.45;102147.30;105675;1287;20115;-62
2022/12/02 03:28:47;;;;;;;;;2.00;2.00;;;;;19.89;57.57;102145.21;105673;1296;19240;-62
2022/12/02 03:31:14;;;;;;;;;2.00;2.00;;;;;19.89;57.41;102141.58;105658;1295;20683;-62
2022/12/02 03:33:41;;;;;;;;;2.00;2.00;;;;;19.90;57.34;102141.00;105614;1295;20107;-61
2022/12/02 03:36:09;;;;;;;;;2.00;2.00;;;;;19.89;57.35;102137.80;105661;1281;19616;-63
2022/12/02 03:38:36;;;;;;;;;5.00;4.00;;;;;19.89;57.56;102140.12;105683;1297;19581;-62
2022/12/02 03:41:04;;;;;;;;;2.00;2.00;;;;;19.90;57.37;102136.11;105626;1297;21502;-61
2022/12/02 03:43:31;;;;;;;;;2.00;2.00;;;;;19.88;57.23;102142.59;105639;1279;19637;-62
2022/12/02 03:45:59;;;;;;;;;3.00;3.00;;;;;19.89;57.32;102143.04;105648;1287;21044;-61
2022/12/02 03:48:26;;;;;;;;;2.00;2.00;;;;;19.88;57.44;102139.48;105627;1288;19960;-60
2022/12/02 03:50:54;;;;;;;;;1.00;1.00;;;;;19.89;57.51;102136.71;105673;1297;19194;-60
2022/12/02 03:53:21;;;;;;;;;1.00;1.00;;;;;19.88;57.42;102139.48;105683;1279;19319;-60
2022/12/02 03:55:49;;;;;;;;;4.00;4.00;;;;;19.88;57.13;102140.58;105631;1279;21683;-63
2022/12/02 03:58:16;;;;;;;;;2.00;2.00;;;;;19.87;57.19;102136.31;105631;1296;19165;-62
2022/12/02 04:00:43;;;;;;;;;2.00;2.00;;;;;19.88;57.22;102138.40;105653;1296;21458;-61
2022/12/02 04:03:11;;;;;;;;;2.00;2.00;;;;;19.89;57.01;102137.83;105626;1282;21457;-62
2022/12/02 04:05:38;;;;;;;;;2.00;2.00;;;;;19.88;57.28;102133.49;105710;1297;19159;-62
2022/12/02 04:08:06;;;;;;;;;;;;;;;19.88;57.24;102135.88;105630;1278;20966;-62
2022/12/02 04:10:33;;;;;;;;;2.00;2.00;;;;;19.87;57.02;102133.96;105654;1297;20101;-62
2022/12/02 04:13:01;;;;;;;;;2.00;2.00;;;;;19.87;57.15;102135.61;105666;1291;19295;-62
2022/12/02 04:15:29;;;;;;;;;2.00;2.00;;;;;19.87;57.16;102134.32;105638;1288;22604;-62
2022/12/02 04:17:56;;;;;;;;;2.00;2.00;;;;;19.87;57.07;102133.83;105672;1297;20230;-62
2022/12/02 04:20:23;;;;;;;;;3.00;2.00;;;;;19.88;57.17;102139.20;105661;1279;19218;-61
2022/12/02 04:22:51;;;;;;;;;2.00;2.00;;;;;19.88;56.83;102142.81;105614;1279;19380;-62
2022/12/02 04:25:18;;;;;;;;;2.00;2.00;;;;;19.86;57.08;102140.79;105673;1295;20103;-61
2022/12/02 04:27:46;;;;;;;;;1.00;1.00;;;;;19.86;56.78;102136.77;105665;1288;23820;-62
2022/12/02 04:30:13;;;;;;;;;3.00;2.00;;;;;19.86;56.97;102138.60;105652;1297;20011;-62
2022/12/02 04:32:40;;;;;;;;;2.00;2.00;;;;;19.87;57.02;102144.38;105653;1279;20402;-62
2022/12/02 04:35:08;;;;;;;;;2.00;2.00;;;;;19.87;56.72;102144.73;105669;1300;19297;-62
2022/12/02 04:37:35;;;;;;;;;3.00;2.00;;;;;19.85;56.85;102135.97;105570;1282;19561;-62
2022/12/02 04:40:03;;;;;;;;;4.00;2.00;;;;;19.86;56.74;102140.39;105537;1295;20116;-61
2022/12/02 04:42:30;;;;;;;;;2.00;2.00;;;;;19.85;56.70;102141.19;105663;1280;19035;-62
2022/12/02 04:44:58;;;;;;;;;2.00;2.00;;;;;19.86;56.76;102142.80;105647;1300;19268;-61
2022/12/02 04:47:25;;;;;;;;;1.50;1.50;;;;;19.86;56.87;102146.98;105662;1279;21511;-63
2022/12/02 04:49:53;;;;;;;;;4.00;4.00;;;;;19.85;56.78;102145.97;105635;1279;19183;-63
2022/12/02 04:52:20;;;;;;;;;;;;;;;19.86;56.70;102146.01;105666;1272;20930;-62
2022/12/02 04:54:48;;;;;;;;;2.00;2.00;;;;;19.85;56.80;102144.65;105665;1292;23471;-63
2022/12/02 04:57:15;;;;;;;;;2.00;2.00;;;;;19.85;56.55;102145.59;105623;1271;19434;-61
2022/12/02 04:59:42;;;;;;;;;2.00;2.00;;;;;19.85;56.70;102147.05;105670;1297;19281;-61
2022/12/02 05:02:10;;;;;;;;;4.00;3.00;;;;;19.85;56.66;102143.63;105620;1289;21419;-62
2022/12/02 05:04:37;;;;;;;;;2.00;2.00;;;;;19.85;56.62;102140.15;105606;1294;19662;-62
2022/12/02 05:07:05;;;;;;;;;2.00;2.00;;;;;19.86;56.57;102143.71;105660;1298;19639;-62
2022/12/02 05:09:32;;;;;;;;;3.00;3.00;;;;;19.86;56.68;102139.92;105618;1280;23305;-62
2022/12/02 05:12:00;;;;;;;;;2.00;2.00;;;;;19.85;56.64;102141.92;105661;1297;19181;-62
2022/12/02 05:14:27;;;;;;;;;2.00;2.00;;;;;19.84;56.60;102138.58;105646;1297;20908;-63
2022/12/02 05:16:55;;;;;;;;;2.00;2.00;;;;;19.85;56.52;102137.11;105651;1297;20176;-62
2022/12/02 05:19:22;;;;;;;;;2.00;2.00;;;;;19.85;56.77;102140.34;105643;1289;20797;-61
2022/12/02 05:21:50;;;;;;;;;2.00;2.00;;;;;19.84;56.46;102138.29;105594;1279;20690;-61
2022/12/02 05:24:17;;;;;;;;;2.00;2.00;;;;;19.84;56.32;102143.36;105608;1279;21453;-62
2022/12/02 05:26:44;;;;;;;;;2.00;2.00;;;;;19.85;56.37;102142.91;105687;1288;19106;-63
2022/12/02 05:29:12;;;;;;;;;2.00;2.00;;;;;19.84;56.57;102146.42;105612;1279;19207;-63
2022/12/02 05:31:39;;;;;;;;;4.00;4.00;;;;;19.83;56.48;102145.02;105630;1288;21808;-61
2022/12/02 05:34:07;;;;;;;;;2.00;2.00;;;;;19.84;56.38;102147.37;105632;1279;19346;-63
2022/12/02 05:36:34;;;;;;;;;3.00;2.00;;;;;19.83;56.61;102145.56;105650;1288;21716;-63
2022/12/02 05:39:01;;;;;;;;;5.00;4.00;;;;;19.83;56.67;102150.83;105684;1293;20151;-63
2022/12/02 05:41:29;;;;;;;;;2.00;2.00;;;;;19.83;56.62;102146.54;105621;1280;19335;-63
2022/12/02 05:43:56;;;;;;;;;4.00;4.00;;;;;19.82;56.41;102145.68;105655;1297;20759;-63
2022/12/02 05:46:24;;;;;;;;;2.00;2.00;;;;;19.82;56.42;102147.69;105661;1279;20176;-62
2022/12/02 05:48:51;;;;;;;;;2.00;2.00;;;;;19.84;56.34;102157.69;105673;1279;19600;-60
2022/12/02 05:51:19;;;;;;;;;;;;;;;19.83;56.35;102157.94;105661;1271;19288;-60
2022/12/02 05:53:46;;;;;;;;;2.00;2.00;;;;;19.83;56.29;102159.23;105682;1271;20072;-62
2022/12/02 05:56:13;;;;;;;;;2.00;2.00;;;;;19.82;56.26;102159.45;105685;1272;19159;-62
2022/12/02 05:58:41;;;;;;;;;3.00;3.00;;;;;19.83;56.31;102160.84;105660;1279;19296;-63
2022/12/02 06:01:08;;;;;;;;;5.00;4.00;;;;;19.83;56.37;102156.11;105668;1297;20515;-62
2022/12/02 06:03:36;;;;;;;;;2.00;2.00;;;;;19.82;56.36;102156.36;105656;1297;19803;-62
2022/12/02 06:06:03;;;;;;;;;2.00;2.00;;;;;19.83;56.26;102157.56;105714;1284;21925;-63
2022/12/02 06:08:31;;;;;;;;;1.00;1.00;;;;;19.82;56.28;102161.32;105657;1297;20096;-61
2022/12/02 06:10:58;;;;;;;;;2.00;2.00;;;;;19.82;56.14;102161.66;105669;1279;24200;-61
2022/12/02 06:13:26;;;;;;;;;4.00;4.00;;;;;19.83;56.25;102161.80;105643;1297;19517;-62
2022/12/02 06:15:53;;;;;;;;;2.00;2.00;;;;;19.84;56.23;102165.07;105684;1289;21720;-64
2022/12/02 06:18:21;;;;;;;;;4.00;2.00;;;;;19.84;56.36;102167.42;105644;1293;19656;-63
2022/12/02 06:20:48;;;;;;;;;7.00;5.00;;;;;19.84;56.38;102168.16;105699;1297;19481;-62
2022/12/02 06:23:15;;;;;;;;;34.00;33.00;;;;;19.89;56.35;102172.63;105604;1297;23149;-62
2022/12/02 06:25:43;;;;;;;;;89.00;71.00;;;;;19.93;56.26;102170.99;105661;1297;19095;-62
2022/12/02 06:28:10;;;;;;;;;88.50;67.00;;;;;19.94;57.00;102172.71;105615;1279;20751;-62
2022/12/02 06:30:38;;;;;;;;;65.00;50.50;;;;;19.92;57.36;102172.38;105684;1288;20071;-63
2022/12/02 06:33:05;;;;;;;;;54.00;47.00;;;;;19.90;57.59;102176.15;105726;1279;20044;-63
2022/12/02 06:35:32;;;;;;;;;56.00;47.00;;;;;19.91;57.48;102182.11;105658;1297;23268;-63
2022/12/02 06:38:00;;;;;;;;;47.50;43.00;;;;;19.92;57.56;102185.05;105663;1281;23576;-63
2022/12/02 06:40:27;;;;;;;;;40.00;36.00;;;;;19.93;57.64;102184.20;105651;1271;19287;-63
2022/12/02 06:42:55;;;;;;;;;37.00;31.00;;;;;19.93;57.41;102180.59;105663;1275;21095;-62
2022/12/02 06:45:23;;;;;;;;;27.00;25.00;;;;;19.94;57.47;102185.06;105639;1272;20072;-62
2022/12/02 06:47:50;;;;;;;;;30.00;25.00;;;;;19.92;57.52;102185.58;105672;1297;19966;-63
2022/12/02 06:50:17;;;;;;;;;24.00;23.00;;;;;19.92;57.48;102187.61;105677;1281;20986;-63
2022/12/02 06:52:45;;;;;;;;;24.00;21.00;;;;;19.92;57.31;102185.44;105617;1295;20097;-61
2022/12/02 06:55:12;;;;;;;;;;;;;;;19.92;57.62;102183.23;105683;1288;22293;-63
2022/12/02 06:57:40;;;;;;;;;19.00;17.50;;;;;19.92;57.47;102186.52;105681;1297;18987;-63
2022/12/02 07:00:08;;;;;;;;;18.00;17.00;;;;;19.90;57.38;102184.11;105714;1279;23667;-63
2022/12/02 07:02:35;;;;;;;;;19.00;16.50;;;;;19.92;57.36;102183.80;105693;1279;20119;-62
2022/12/02 07:05:03;;;;;;;;;15.00;15.00;;;;;19.91;57.33;102180.39;105562;1288;20901;-64
2022/12/02 07:07:30;;;;;;;;;17.00;14.00;;;;;19.92;57.33;102185.10;105654;1288;20097;-61
2022/12/02 07:09:57;;;;;;;;;17.00;15.00;;;;;19.90;57.22;102187.41;105668;1271;22964;-62
2022/12/02 07:12:25;;;;;;;;;13.00;13.00;;;;;19.89;57.25;102188.20;105620;1295;21157;-62
2022/12/02 07:14:52;;;;;;;;;15.00;14.00;;;;;19.89;57.22;102183.92;105664;1297;21568;-63
2022/12/02 07:17:20;;;;;;;;;15.00;12.00;;;;;19.87;57.34;102183.33;105603;1297;23504;-62
2022/12/02 07:19:48;;;;;;;;;17.00;13.00;;;;;19.86;57.19;102189.95;105604;1295;20776;-61
2022/12/02 07:22:15;;;;;;;;;10.00;8.00;;;;;19.87;57.19;102182.77;105572;1272;23453;-63
2022/12/02 07:24:42;;;;;;;;;8.00;8.00;;;;;19.86;57.24;102184.32;105580;1288;19288;-64
2022/12/02 07:27:10;;;;;;;;;10.00;10.00;;;;;19.85;57.01;102185.87;105645;1279;22049;-63
2022/12/02 07:29:37;;;;;;;;;10.00;8.00;;;;;19.85;57.18;102188.04;105632;1297;19971;-62
2022/12/02 07:32:05;;;;;;;;;11.00;8.00;;;;;19.84;57.12;102191.94;105603;1272;19181;-62
2022/12/02 07:34:32;;;;;;;;;10.00;10.00;;;;;19.85;56.83;102191.50;105627;1279;19849;-61
2022/12/02 07:37:00;;;;;;;;;10.00;8.00;;;;;19.85;56.83;102186.77;105604;1279;20293;-63
2022/12/02 07:39:27;;;;;;;;;8.00;7.50;;;;;19.85;56.82;102188.58;105543;1297;23809;-63
2022/12/02 07:41:55;;;;;;;;;10.00;8.00;;;;;19.85;56.94;102191.36;105559;1297;20875;-64
2022/12/02 07:44:22;;;;;;;;;7.00;7.00;;;;;19.85;56.82;102192.05;105432;1290;21568;-64
2022/12/02 07:46:49;;;;;;;;;5.50;5.50;;;;;19.85;56.95;102194.34;105387;1282;20060;-62
2022/12/02 07:49:17;;;;;;;;;8.00;7.00;;;;;19.84;56.87;102192.31;105493;1274;20688;-63
2022/12/02 07:51:44;;;;;;;;;7.00;7.00;;;;;19.84;56.88;102197.04;105475;1280;20276;-61
2022/12/02 07:54:12;;;;;;;;;5.00;5.00;;;;;19.84;56.73;102200.65;105448;1288;24085;-62
2022/12/02 07:56:39;;;;;;;;;8.00;8.00;;;;;19.84;56.72;102202.67;105508;1282;19194;-62
2022/12/02 07:59:07;;;;;;;;;;;;;;;19.83;56.54;102201.08;105469;1289;23544;-62
2022/12/02 08:01:34;;;;;;;;;10.00;7.00;;;;;19.84;56.64;102202.27;105350;1282;19420;-61
2022/12/02 08:04:01;;;;;;;;;7.00;7.00;;;;;19.86;56.42;102205.92;105490;1296;23184;-63
2022/12/02 08:06:29;;;;;;;;;7.50;7.00;;;;;19.87;56.52;102197.14;105533;1281;20074;-62
2022/12/02 08:08:56;;;;;;;;;8.00;7.00;;;;;19.87;56.48;102204.02;105517;1290;19672;-64
2022/12/02 08:11:24;;;;;;;;;7.00;7.00;;;;;19.88;56.53;102202.08;105483;1297;19269;-63
2022/12/02 08:13:52;;;;;;;;;7.00;5.00;;;;;19.89;56.52;102203.14;105481;1281;23523;-63
2022/12/02 08:16:19;;;;;;;;;7.00;5.00;;;;;19.91;56.61;102206.73;105479;1281;23686;-62
2022/12/02 08:18:47;;;;;;;;;6.00;6.00;;;;;19.92;56.37;102207.37;105485;1296;19297;-62
2022/12/02 08:21:14;;;;;;;;;5.00;5.00;;;;;19.93;56.55;102209.27;105479;1297;20069;-62
2022/12/02 08:23:42;;;;;;;;;5.00;5.00;;;;;19.93;56.58;102207.29;105540;1279;19827;-64
2022/12/02 08:26:09;;;;;;;;;4.00;4.00;;;;;19.94;56.42;102212.30;105434;1274;19345;-64
2022/12/02 08:28:37;;;;;;;;;;;;;;;19.95;56.44;102213.85;105485;1288;20108;-63
2022/12/02 08:31:04;;;;;;;;;4.00;4.00;;;;;19.95;56.51;102216.89;105449;1275;19188;-63
2022/12/02 08:33:32;;;;;;;;;7.00;5.00;;;;;19.94;56.62;102212.63;105454;1274;22937;-63
2022/12/02 08:35:59;;;;;;;;;5.00;5.00;;;;;19.95;56.58;102208.23;105505;1296;20094;-63
2022/12/02 08:38:26;;;;;;;;;5.00;4.00;;;;;19.95;56.30;102207.98;105378;1280;19273;-62
2022/12/02 08:40:54;;;;;;;;;6.00;4.00;;;;;19.97;56.39;102207.99;105510;1288;23577;-63
2022/12/02 08:43:21;;;;;;;;;5.00;5.00;;;;;19.98;56.53;102207.89;105696;1279;21704;-61
2022/12/02 08:45:49;;;;;;;;;5.00;5.00;;;;;19.99;56.61;102209.61;105432;1272;21033;-62
2022/12/02 08:48:16;;;;;;;;;7.50;7.00;;;;;20.00;56.71;102210.44;105526;1288;19252;-61
2022/12/02 08:50:44;;;;;;;;;4.00;4.00;;;;;19.99;57.01;102213.96;105637;1279;20618;-62
2022/12/02 08:53:12;;;;;;;;;5.00;5.00;;;;;20.00;57.40;102213.56;105537;1281;20294;-61
2022/12/02 08:55:39;;;;;;;;;5.00;5.00;;;;;20.02;57.32;102209.20;105584;1279;19253;-61
2022/12/02 08:58:06;;;;;;;;;6.00;6.00;;;;;20.02;57.20;102207.55;105599;1295;20195;-61
2022/12/02 09:00:34;;;;;;;;;7.00;7.00;;;;;20.02;57.41;102206.86;105643;1281;19539;-62
2022/12/02 09:03:02;;;;;;;;;4.00;4.00;;;;;20.00;57.41;102208.42;105601;1271;20701;-64
2022/12/02 09:05:29;;;;;;;;;4.00;4.00;;;;;20.01;57.48;102209.64;105615;1295;21489;-63
2022/12/02 09:07:56;;;;;;;;;7.00;5.00;;;;;20.01;57.14;102206.17;105655;1279;19316;-62
2022/12/02 09:10:24;;;;;;;;;5.00;4.00;;;;;19.97;57.27;102203.97;105647;1287;19350;-63
2022/12/02 09:12:52;;;;;;;;;4.00;4.00;;;;;19.96;57.54;102211.88;105647;1279;20054;-62
2022/12/02 09:15:20;;;;;;;;;4.50;4.00;;;;;19.95;57.39;102207.27;105633;1295;24640;-62
2022/12/02 09:17:47;;;;;;;;;7.00;7.00;;;;;19.96;57.20;102211.16;105683;1297;20904;-63
2022/12/02 09:20:15;;;;;;;;;5.00;5.00;;;;;19.98;56.95;102207.90;105663;1279;20162;-62
2022/12/02 09:22:44;;;;;;;;;8.00;7.00;;;;;19.99;57.09;102210.95;105622;1297;19879;-63
2022/12/02 09:25:12;;;;;;;;;6.00;4.50;;;;;19.97;56.95;102208.20;105626;1279;19560;-60
2022/12/02 09:27:39;;;;;;;;;7.00;5.00;;;;;19.97;56.72;102208.02;105479;1288;20484;-59
2022/12/02 09:30:07;;;;;;;;;5.00;4.00;;;;;19.95;56.53;102214.89;105583;1300;21649;-62
2022/12/02 09:32:34;;;;;;;;;;;;;;;19.94;56.84;102214.05;105657;1275;19383;-61
2022/12/02 09:35:02;;;;;;;;;7.00;7.00;;;;;19.93;56.70;102213.96;105580;1272;22331;-60
2022/12/02 09:37:29;;;;;;;;;8.00;7.00;;;;;19.91;56.51;102211.80;105588;1295;19171;-60
2022/12/02 09:39:56;;;;;;;;;7.00;7.00;;;;;19.89;56.26;102212.52;105545;1276;19340;-61
2022/12/02 09:42:24;;;;;;;;;7.50;7.00;;;;;19.89;56.16;102213.96;105580;1286;22894;-61
2022/12/02 09:44:52;;;;;;;;;7.00;5.00;;;;;19.89;55.98;102217.58;105637;1297;19206;-61
2022/12/02 09:47:19;;;;;;;;;8.00;8.00;;;;;19.89;56.22;102223.39;105566;1272;20910;-62
2022/12/02 09:49:47;;;;;;;;;7.00;7.00;;;;;19.89;56.01;102217.44;105612;1285;20076;-62
2022/12/02 09:52:15;;;;;;;;;7.00;5.00;;;;;19.89;56.00;102213.83;105514;1287;24263;-62
2022/12/02 09:54:42;;;;;;;;;4.00;4.00;;;;;19.88;56.08;102216.66;105561;1279;19267;-61
2022/12/02 09:57:10;;;;;;;;;7.00;6.00;;;;;19.87;55.85;102216.14;105660;1279;19960;-61
2022/12/02 09:59:37;;;;;;;;;;;;;;;19.89;55.80;102211.98;105607;1279;19165;-63
2022/12/02 10:02:05;;;;;;;;;5.00;5.00;;;;;19.89;55.98;102210.55;105665;1289;19147;-61
2022/12/02 10:04:33;;;;;;;;;4.50;4.50;;;;;19.88;55.88;102208.27;105580;1272;20207;-62
2022/12/02 10:07:01;;;;;;;;;6.00;6.00;;;;;19.87;55.80;102202.55;105557;1288;19654;-63
2022/12/02 10:09:28;;;;;;;;;7.00;7.00;;;;;19.88;55.84;102204.48;105495;1279;19646;-63
2022/12/02 10:11:56;;;;;;;;;4.00;4.00;;;;;19.88;55.87;102206.09;105582;1288;21734;-63
2022/12/02 10:14:23;;;;;;;;;7.00;6.00;;;;;19.88;55.75;102205.77;105433;1271;19901;-63
2022/12/02 10:16:51;;;;;;;;;5.00;5.00;;;;;19.88;55.80;102204.11;105427;1279;25282;-63
2022/12/02 10:19:18;;;;;;;;;7.00;7.00;;;;;19.87;55.73;102200.05;105540;1295;23521;-62
2022/12/02 10:21:46;;;;;;;;;7.00;7.00;;;;;19.87;56.02;102200.56;105624;1279;19179;-63
2022/12/02 10:24:13;;;;;;;;;6.00;4.50;;;;;19.87;55.76;102196.05;105702;1294;20720;-63
2022/12/02 10:26:41;;;;;;;;;7.00;6.00;;;;;19.87;55.64;102197.14;105594;1271;20160;-63
2022/12/02 10:29:08;;;;;;;;;4.00;4.00;;;;;19.87;55.60;102195.66;105585;1272;20506;-63
2022/12/02 10:31:36;;;;;;;;;7.00;4.00;;;;;19.88;55.75;102193.98;105626;1297;19502;-62
2022/12/02 10:34:03;;;;;;;;;7.00;5.00;;;;;19.86;55.74;102188.52;105559;1303;20089;-62
2022/12/02 10:36:31;;;;;;;;;5.00;5.00;;;;;19.87;55.46;102190.80;105572;1288;19592;-63
2022/12/02 10:38:59;;;;;;;;;5.00;5.00;;;;;19.86;55.55;102184.48;105597;1279;20708;-62
2022/12/02 10:41:27;;;;;;;;;6.00;4.50;;;;;19.86;55.49;102187.77;105614;1279;21546;-63
2022/12/02 10:43:55;;;;;;;;;5.00;5.00;;;;;19.86;55.34;102189.39;105674;1294;23548;-64
2022/12/02 10:46:22;;;;;;;;;5.00;4.00;;;;;19.87;55.41;102184.05;105639;1287;20817;-64
2022/12/02 10:48:50;;;;;;;;;6.00;5.00;;;;;19.86;55.65;102185.04;105609;1272;20151;-63
2022/12/02 10:51:17;;;;;;;;;4.00;4.00;;;;;19.86;55.59;102186.14;105544;1272;23487;-63
2022/12/02 10:53:45;;;;;;;;;4.00;4.00;;;;;19.87;55.37;102184.65;105636;1294;19414;-62
2022/12/02 10:56:12;;;;;;;;;7.00;5.00;;;;;19.85;55.31;102182.74;105646;1296;20162;-64
2022/12/02 10:58:39;;;;;;;;;5.00;5.00;;;;;19.85;55.24;102182.57;105600;1279;19641;-63
2022/12/02 11:01:07;;;;;;;;;7.00;5.00;;;;;19.87;55.32;102182.48;105643;1291;19313;-64
2022/12/02 11:03:35;;;;;;;;;4.00;4.00;;;;;19.87;55.41;102179.38;105610;1281;20243;-63
2022/12/02 11:06:02;;;;;;;;;4.00;4.00;;;;;19.86;55.49;102177.59;105677;1297;24739;-63
2022/12/02 11:08:30;;;;;;;;;4.00;4.00;;;;;19.86;55.31;102176.90;105646;1279;19692;-63
2022/12/02 11:10:57;;;;;;;;;4.00;4.00;;;;;19.87;55.30;102176.86;105585;1279;21486;-63
2022/12/02 11:13:25;;;;;;;;;4.00;4.00;;;;;19.87;55.35;102176.83;105545;1279;19202;-63
2022/12/02 11:15:52;;;;;;;;;6.00;5.00;;;;;19.86;55.28;102170.54;105624;1279;19480;-63
2022/12/02 11:18:19;;;;;;;;;7.00;5.00;;;;;19.87;55.05;102167.41;105577;1294;23028;-63
2022/12/02 11:20:47;;;;;;;;;6.00;5.00;;;;;19.85;54.94;102164.45;105594;1296;19321;-63